Fort Worth Alliance Airport Fort Worth US
ICAO: KAFW
IATA: AFW
Category: Large
Scheduled Services: No

Elevation: 722 ft
TransAlt. 18000 ft.

Airport Communications:
RGNL APP/DEP:118.1
ASOS:126.925
ATIS:126.925
CLNC DEL:128.725
GND:132.65
ALLIANCE TWR:120.825

KAFW Zoom In..

Runways:

(A) RW 16L length 9600 ft width 150 ft
ILS 110.15 / hdg 163

(B) RW 16R length 8220 ft width 150 ft
---- / hdg 163

(C) RW 34L length 8220 ft width 150 ft
---- / hdg 343

(D) RW 34R length 9600 ft width 150 ft
ILS 110.15 / hdg 343

Location; KAFW
Day. 19 / Time. 19.53 Zulu
* Altimeter: 29.83
* Temperature: 42° c. 107.6°f.
* Wind from: 220° Speed 07 kn.
Dewpoint: 15° c.
Visibility: 10 Statute Miles.
Clouds: Clear (automated report).

KAFW 191953Z 22007KT 10SM CLR 42/15 A2983 RMK AO2 SLP076 T04220150


Wind From 220°
Speed 07 kn.

 
 
jpsmedia.com for Web Design worldairports.se 2018   terms of use